createdAt,value
2018-03-16T00:00:28.080Z,1004.69
2018-03-16T00:01:28.114Z,1004.74
2018-03-16T00:02:28.125Z,1004.71
2018-03-16T00:03:28.139Z,1004.70
2018-03-16T00:04:28.157Z,1004.71
2018-03-16T00:05:28.180Z,1004.68
2018-03-16T00:06:28.209Z,1004.68
2018-03-16T00:07:28.217Z,1004.64
2018-03-16T00:08:28.248Z,1004.66
2018-03-16T00:09:28.271Z,1004.68
2018-03-16T00:10:28.279Z,1004.66
2018-03-16T00:11:28.304Z,1004.74
2018-03-16T00:12:28.320Z,1004.65
2018-03-16T00:13:28.338Z,1004.69
2018-03-16T00:14:28.364Z,1004.69
2018-03-16T00:15:28.382Z,1004.73
2018-03-16T00:16:28.399Z,1004.75
2018-03-16T00:17:28.429Z,1004.72
2018-03-16T00:18:28.449Z,1004.72
2018-03-16T00:19:28.456Z,1004.79
2018-03-16T00:20:28.481Z,1004.71
2018-03-16T00:21:28.498Z,1004.68
2018-03-16T00:22:28.519Z,1004.74
2018-03-16T00:23:28.535Z,1004.73
2018-03-16T00:24:28.557Z,1004.70
2018-03-16T00:25:28.596Z,1004.67
2018-03-16T00:26:28.607Z,1004.78
2018-03-16T00:27:28.630Z,1004.76
2018-03-16T00:28:28.641Z,1004.73
2018-03-16T00:29:28.660Z,1004.68
2018-03-16T00:30:28.688Z,1004.73
2018-03-16T00:31:28.701Z,1004.69
2018-03-16T00:32:28.721Z,1004.64
2018-03-16T00:33:28.747Z,1004.72
2018-03-16T00:34:28.770Z,1004.69
2018-03-16T00:35:28.777Z,1004.75
2018-03-16T00:36:28.802Z,1004.76
2018-03-16T00:37:28.830Z,1004.65
2018-03-16T00:38:28.853Z,1004.64
2018-03-16T00:39:28.859Z,1004.59
2018-03-16T00:40:28.876Z,1004.66
2018-03-16T00:41:28.909Z,1004.69
2018-03-16T00:42:28.916Z,1004.67
2018-03-16T00:43:28.940Z,1004.69
2018-03-16T00:44:28.956Z,1004.67
2018-03-16T00:45:28.976Z,1004.61
2018-03-16T00:46:28.998Z,1004.59
2018-03-16T00:47:29.018Z,1004.65
2018-03-16T00:48:29.048Z,1004.60
2018-03-16T00:49:29.063Z,1004.49
2018-03-16T00:50:29.081Z,1004.57
2018-03-16T00:51:29.108Z,1004.61
2018-03-16T00:52:29.119Z,1004.55
2018-03-16T00:53:29.140Z,1004.51
2018-03-16T00:54:29.162Z,1004.48
2018-03-16T00:55:29.181Z,1004.48
2018-03-16T00:56:29.204Z,1004.47
2018-03-16T00:57:29.225Z,1004.46
2018-03-16T00:58:29.239Z,1004.44
2018-03-16T00:59:29.261Z,1004.44
2018-03-16T01:00:29.279Z,1004.44
2018-03-16T01:01:29.297Z,1004.48
2018-03-16T01:02:30.206Z,1004.43
2018-03-16T01:03:29.335Z,1004.43
2018-03-16T01:04:29.425Z,1004.41
2018-03-16T01:05:29.385Z,1004.45
2018-03-16T01:06:29.402Z,1004.48
2018-03-16T01:07:29.415Z,1004.45
2018-03-16T01:08:29.437Z,1004.43
2018-03-16T01:09:29.459Z,1004.37
2018-03-16T01:10:29.481Z,1004.37
2018-03-16T01:11:29.497Z,1004.38
2018-03-16T01:12:29.526Z,1004.37
2018-03-16T01:13:29.547Z,1004.32
2018-03-16T01:14:29.629Z,1004.37
2018-03-16T01:15:29.670Z,1004.29
2018-03-16T01:16:29.602Z,1004.28
2018-03-16T01:17:30.206Z,1004.22
2018-03-16T01:18:29.642Z,1004.26
2018-03-16T01:19:29.653Z,1004.29
2018-03-16T01:20:29.685Z,1004.23
2018-03-16T01:21:29.700Z,1004.28
2018-03-16T01:22:29.717Z,1004.21
2018-03-16T01:23:29.734Z,1004.17
2018-03-16T01:24:29.752Z,1004.25
2018-03-16T01:25:29.776Z,1004.18
2018-03-16T01:26:29.796Z,1004.19
2018-03-16T01:27:29.813Z,1004.18
2018-03-16T01:28:29.848Z,1004.19
2018-03-16T01:29:29.870Z,1004.15
2018-03-16T01:30:29.888Z,1004.19
2018-03-16T01:31:29.891Z,1004.15
2018-03-16T01:32:29.926Z,1004.19
2018-03-16T01:33:29.933Z,1004.25
2018-03-16T01:34:29.953Z,1004.19
2018-03-16T01:35:29.972Z,1004.31
2018-03-16T01:36:30.016Z,1004.28
2018-03-16T01:37:30.025Z,1004.37
2018-03-16T01:38:30.034Z,1004.30
2018-03-16T01:39:30.055Z,1004.29
2018-03-16T01:40:30.091Z,1004.39
2018-03-16T01:41:30.099Z,1004.34
2018-03-16T01:42:30.115Z,1004.35
2018-03-16T01:43:30.145Z,1004.36
2018-03-16T01:44:30.154Z,1004.36
2018-03-16T01:45:30.183Z,1004.39
2018-03-16T01:46:30.197Z,1004.40
2018-03-16T01:47:30.217Z,1004.39
2018-03-16T01:48:30.241Z,1004.32
2018-03-16T01:49:30.254Z,1004.37
2018-03-16T01:50:30.273Z,1004.39
2018-03-16T01:51:30.314Z,1004.43
2018-03-16T01:52:30.310Z,1004.33
2018-03-16T01:53:30.336Z,1004.38
2018-03-16T01:54:30.352Z,1004.36
2018-03-16T01:55:30.370Z,1004.44
2018-03-16T01:56:30.392Z,1004.38
2018-03-16T01:57:30.409Z,1004.37
2018-03-16T01:58:30.435Z,1004.34
2018-03-16T01:59:30.452Z,1004.33
2018-03-16T02:00:30.470Z,1004.29
2018-03-16T02:01:30.497Z,1004.31
2018-03-16T02:02:30.505Z,1004.31
2018-03-16T02:03:30.526Z,1004.23
2018-03-16T02:04:30.553Z,1004.44
2018-03-16T02:05:30.571Z,1004.40
2018-03-16T02:06:30.597Z,1004.38
2018-03-16T02:07:30.608Z,1004.45
2018-03-16T02:08:30.627Z,1004.62
2018-03-16T02:09:30.651Z,1004.46
2018-03-16T02:10:30.665Z,1004.53
2018-03-16T02:11:30.683Z,1004.46
2018-03-16T02:12:30.703Z,1004.65
2018-03-16T02:13:30.727Z,1004.49
2018-03-16T02:14:30.745Z,1004.48
2018-03-16T02:15:30.764Z,1004.45
2018-03-16T02:16:30.786Z,1004.50
2018-03-16T02:17:30.805Z,1004.47
2018-03-16T02:18:30.824Z,1004.51
2018-03-16T02:19:30.841Z,1004.52
2018-03-16T02:20:30.869Z,1004.52
2018-03-16T02:21:30.880Z,1004.52
2018-03-16T02:22:30.909Z,1004.54
2018-03-16T02:23:30.921Z,1004.53
2018-03-16T02:24:30.942Z,1004.60
2018-03-16T02:25:30.961Z,1004.63
2018-03-16T02:26:30.979Z,1004.58
2018-03-16T02:27:31.001Z,1004.66
2018-03-16T02:28:31.020Z,1004.53
2018-03-16T02:29:31.037Z,1004.51
2018-03-16T02:30:31.087Z,1004.57
2018-03-16T02:31:31.088Z,1004.47
2018-03-16T02:32:31.099Z,1004.54
2018-03-16T02:33:31.123Z,1004.41
2018-03-16T02:34:31.139Z,1004.53
2018-03-16T02:35:31.161Z,1004.49
2018-03-16T02:36:31.175Z,1004.49
2018-03-16T02:37:31.198Z,1004.43
2018-03-16T02:38:31.215Z,1004.37
2018-03-16T02:39:31.239Z,1004.45
2018-03-16T02:40:31.265Z,1004.40
2018-03-16T02:41:31.280Z,1004.36
2018-03-16T02:42:31.299Z,1004.40
2018-03-16T02:43:31.322Z,1004.43
2018-03-16T02:44:31.345Z,1004.46
2018-03-16T02:45:31.364Z,1004.45
2018-03-16T02:46:31.380Z,1004.41
2018-03-16T02:47:31.393Z,1004.36
2018-03-16T02:48:31.413Z,1004.44
2018-03-16T02:49:31.439Z,1004.40
2018-03-16T02:50:31.459Z,1004.24
2018-03-16T02:51:31.472Z,1004.46
2018-03-16T02:52:31.488Z,1004.39
2018-03-16T02:53:31.524Z,1004.24
2018-03-16T02:54:31.530Z,1004.39
2018-03-16T02:55:31.555Z,1004.30
2018-03-16T02:56:31.573Z,1004.31
2018-03-16T02:57:31.602Z,1004.29
2018-03-16T02:58:31.620Z,1004.31
2018-03-16T02:59:31.689Z,1004.45
2018-03-16T03:00:31.648Z,1004.31
2018-03-16T03:01:31.670Z,1004.28
2018-03-16T03:02:31.699Z,1004.32
2018-03-16T03:03:31.714Z,1004.32
2018-03-16T03:04:31.730Z,1004.36
2018-03-16T03:05:31.747Z,1004.34
2018-03-16T03:06:31.770Z,1004.61
2018-03-16T03:07:31.800Z,1004.35
2018-03-16T03:08:31.803Z,1004.34
2018-03-16T03:09:31.836Z,1004.38
2018-03-16T03:10:31.919Z,1004.33
2018-03-16T03:11:31.864Z,1004.40
2018-03-16T03:12:31.943Z,1004.31
2018-03-16T03:13:31.913Z,1004.31
2018-03-16T03:14:31.923Z,1004.37
2018-03-16T03:15:31.952Z,1004.38
2018-03-16T03:16:31.959Z,1004.31
2018-03-16T03:17:31.979Z,1004.31
2018-03-16T03:18:32.005Z,1004.31
2018-03-16T03:19:32.026Z,1004.40
2018-03-16T03:20:32.042Z,1004.34
2018-03-16T03:21:32.055Z,1004.36
2018-03-16T03:22:32.084Z,1004.58
2018-03-16T03:23:32.094Z,1004.37
2018-03-16T03:24:32.115Z,1004.45
2018-03-16T03:25:32.137Z,1004.41
2018-03-16T03:26:32.162Z,1004.45
2018-03-16T03:27:32.172Z,1004.46
2018-03-16T03:28:32.200Z,1004.43
2018-03-16T03:29:32.222Z,1004.51
2018-03-16T03:30:32.246Z,1004.46
2018-03-16T03:31:32.263Z,1004.55
2018-03-16T03:32:32.283Z,1004.48
2018-03-16T03:33:32.295Z,1004.51
2018-03-16T03:34:32.310Z,1004.54
2018-03-16T03:35:32.335Z,1004.55
2018-03-16T03:36:32.362Z,1004.63
2018-03-16T03:37:32.377Z,1004.66
2018-03-16T03:38:32.394Z,1004.65
2018-03-16T03:39:32.412Z,1004.65
2018-03-16T03:40:32.435Z,1004.66
2018-03-16T03:41:32.454Z,1004.67
2018-03-16T03:42:32.476Z,1004.63
2018-03-16T03:43:32.494Z,1004.60
2018-03-16T03:44:32.512Z,1004.64
2018-03-16T03:45:32.540Z,1004.60
2018-03-16T03:46:32.556Z,1004.64
2018-03-16T03:47:32.572Z,1004.62
2018-03-16T03:48:32.595Z,1004.56
2018-03-16T03:49:32.607Z,1004.56
2018-03-16T03:50:32.625Z,1004.53
2018-03-16T03:51:32.662Z,1004.53
2018-03-16T03:52:32.666Z,1004.45
2018-03-16T03:53:32.691Z,1004.44
2018-03-16T03:54:32.715Z,1004.46
2018-03-16T03:55:32.723Z,1004.44
2018-03-16T03:56:32.754Z,1004.37
2018-03-16T03:57:32.766Z,1004.33
2018-03-16T03:58:32.784Z,1004.30
2018-03-16T03:59:32.811Z,1004.32
2018-03-16T04:00:32.823Z,1004.34
2018-03-16T04:01:32.860Z,1004.31
2018-03-16T04:02:32.886Z,1004.35
2018-03-16T04:03:32.880Z,1004.40
2018-03-16T04:04:32.904Z,1004.34
2018-03-16T04:05:32.925Z,1004.34
2018-03-16T04:06:32.939Z,1004.33
2018-03-16T04:07:32.977Z,1004.35
2018-03-16T04:08:32.976Z,1004.36
2018-03-16T04:09:33.006Z,1004.25
2018-03-16T04:10:33.020Z,1004.36
2018-03-16T04:11:33.040Z,1004.35
2018-03-16T04:12:33.056Z,1004.31
2018-03-16T04:13:33.136Z,1004.33
2018-03-16T04:14:33.095Z,1004.41
2018-03-16T04:15:33.168Z,1004.31
2018-03-16T04:16:33.133Z,1004.40
2018-03-16T04:17:33.154Z,1004.38
2018-03-16T04:18:33.171Z,1004.39
2018-03-16T04:19:33.194Z,1004.38
2018-03-16T04:20:33.212Z,1004.38
2018-03-16T04:21:33.233Z,1004.38
2018-03-16T04:22:33.249Z,1004.44
2018-03-16T04:23:33.271Z,1004.40
2018-03-16T04:24:33.290Z,1004.35
2018-03-16T04:25:33.310Z,1004.34
2018-03-16T04:26:33.346Z,1004.28
2018-03-16T04:27:33.347Z,1004.33
2018-03-16T04:28:33.368Z,1004.41
2018-03-16T04:29:33.388Z,1004.33
2018-03-16T04:30:33.409Z,1004.35
2018-03-16T04:31:33.430Z,1004.27
2018-03-16T04:32:33.457Z,1004.30
2018-03-16T04:33:33.465Z,1004.24
2018-03-16T04:34:33.496Z,1004.32
2018-03-16T04:35:33.508Z,1004.34
2018-03-16T04:36:33.521Z,1004.32
2018-03-16T04:37:33.545Z,1004.41
2018-03-16T04:38:33.568Z,1004.27
2018-03-16T04:39:33.592Z,1004.42
2018-03-16T04:40:33.600Z,1004.37
2018-03-16T04:41:33.624Z,1004.40
2018-03-16T04:42:33.643Z,1004.41
2018-03-16T04:43:33.705Z,1004.41
2018-03-16T04:44:33.680Z,1004.43
2018-03-16T04:45:33.700Z,1004.45
2018-03-16T04:46:33.724Z,1004.39
2018-03-16T04:47:33.738Z,1004.43
2018-03-16T04:48:33.757Z,1004.37
2018-03-16T04:49:33.775Z,1004.43
2018-03-16T04:50:33.795Z,1004.42
2018-03-16T04:51:33.816Z,1004.41
2018-03-16T04:52:33.856Z,1004.44
2018-03-16T04:53:33.854Z,1004.43
2018-03-16T04:54:33.893Z,1004.37
2018-03-16T04:55:33.893Z,1004.42
2018-03-16T04:56:33.913Z,1004.36
2018-03-16T04:57:33.941Z,1004.39
2018-03-16T04:58:33.960Z,1004.38
2018-03-16T04:59:33.977Z,1004.38
2018-03-16T05:00:34.007Z,1004.44
2018-03-16T05:01:34.011Z,1004.41
2018-03-16T05:02:34.042Z,1004.42
2018-03-16T05:03:34.046Z,1004.47
2018-03-16T05:04:34.076Z,1004.42
2018-03-16T05:05:34.099Z,1004.37
2018-03-16T05:06:34.107Z,1004.38
2018-03-16T05:07:34.127Z,1004.45
2018-03-16T05:08:34.147Z,1004.44
2018-03-16T05:09:34.168Z,1004.44
2018-03-16T05:10:34.189Z,1004.46
2018-03-16T05:11:34.205Z,1004.43
2018-03-16T05:12:34.224Z,1004.40
2018-03-16T05:13:34.247Z,1004.47
2018-03-16T05:14:34.264Z,1004.50
2018-03-16T05:15:34.281Z,1004.49
2018-03-16T05:16:34.402Z,1004.53
2018-03-16T05:17:34.316Z,1004.49
2018-03-16T05:18:34.340Z,1004.47
2018-03-16T05:19:34.357Z,1004.45
2018-03-16T05:20:34.379Z,1004.44
2018-03-16T05:21:34.407Z,1004.46
2018-03-16T05:22:34.437Z,1004.41
2018-03-16T05:23:34.434Z,1004.48
2018-03-16T05:24:34.463Z,1004.42
2018-03-16T05:25:34.473Z,1004.36
2018-03-16T05:26:34.508Z,1004.37
2018-03-16T05:27:34.509Z,1004.32
2018-03-16T05:28:34.542Z,1004.33
2018-03-16T05:29:34.552Z,1004.27
2018-03-16T05:30:34.630Z,1004.28
2018-03-16T05:31:34.604Z,1004.25
2018-03-16T05:32:34.626Z,1004.19
2018-03-16T05:33:34.647Z,1004.27
2018-03-16T05:34:34.652Z,1004.28
2018-03-16T05:35:34.686Z,1004.32
2018-03-16T05:36:34.691Z,1004.28
2018-03-16T05:37:34.708Z,1004.34
2018-03-16T05:38:34.728Z,1004.34
2018-03-16T05:39:34.755Z,1004.29
2018-03-16T05:40:34.775Z,1004.29
2018-03-16T05:41:34.807Z,1004.31
2018-03-16T05:42:34.806Z,1004.40
2018-03-16T05:43:34.819Z,1004.46
2018-03-16T05:44:34.844Z,1004.28
2018-03-16T05:45:34.863Z,1004.35
2018-03-16T05:46:34.894Z,1004.33
2018-03-16T05:47:34.899Z,1004.33
2018-03-16T05:48:34.915Z,1004.38
2018-03-16T05:49:34.937Z,1004.34
2018-03-16T05:50:34.956Z,1004.40
2018-03-16T05:51:34.979Z,1004.39
2018-03-16T05:52:34.999Z,1004.33
2018-03-16T05:53:35.028Z,1004.35
2018-03-16T05:54:35.047Z,1004.33
2018-03-16T05:55:35.095Z,1004.31
2018-03-16T05:56:35.089Z,1004.46
2018-03-16T05:57:35.094Z,1004.41
2018-03-16T05:58:35.127Z,1004.36
2018-03-16T05:59:35.129Z,1004.41
2018-03-16T06:00:35.151Z,1004.39
2018-03-16T06:01:35.182Z,1004.41
2018-03-16T06:02:35.194Z,1004.32
2018-03-16T06:03:35.211Z,1004.35
2018-03-16T06:04:35.230Z,1004.42
2018-03-16T06:05:35.245Z,1004.39
2018-03-16T06:06:35.264Z,1004.41
2018-03-16T06:07:35.283Z,1004.40
2018-03-16T06:08:35.318Z,1004.45
2018-03-16T06:09:35.321Z,1004.48
2018-03-16T06:10:35.350Z,1004.52
2018-03-16T06:11:35.400Z,1004.46
2018-03-16T06:12:35.388Z,1004.46
2018-03-16T06:13:35.402Z,1004.47
2018-03-16T06:14:35.428Z,1004.53
2018-03-16T06:15:35.460Z,1004.59
2018-03-16T06:16:35.462Z,1004.44
2018-03-16T06:17:35.482Z,1004.48
2018-03-16T06:18:35.494Z,1004.40
2018-03-16T06:19:36.205Z,1004.45
2018-03-16T06:20:35.539Z,1004.40
2018-03-16T06:21:35.571Z,1004.58
2018-03-16T06:22:35.573Z,1004.42
2018-03-16T06:23:35.609Z,1004.39
2018-03-16T06:24:35.611Z,1004.40
2018-03-16T06:25:35.627Z,1004.36
2018-03-16T06:26:35.656Z,1004.31
2018-03-16T06:27:35.676Z,1004.34
2018-03-16T06:28:35.692Z,1004.30
2018-03-16T06:29:35.721Z,1004.29
2018-03-16T06:30:35.750Z,1004.36
2018-03-16T06:31:35.751Z,1004.37
2018-03-16T06:32:35.790Z,1004.38
2018-03-16T06:33:35.793Z,1004.37
2018-03-16T06:34:35.816Z,1004.39
2018-03-16T06:35:35.822Z,1004.39
2018-03-16T06:36:35.845Z,1004.40
2018-03-16T06:37:35.860Z,1004.48
2018-03-16T06:38:35.891Z,1004.44
2018-03-16T06:39:35.902Z,1004.49
2018-03-16T06:40:35.930Z,1004.37
2018-03-16T06:41:35.956Z,1004.46
2018-03-16T06:42:35.966Z,1004.43
2018-03-16T06:43:35.990Z,1004.51
2018-03-16T06:44:36.086Z,1004.58
2018-03-16T06:45:36.022Z,1004.48
2018-03-16T06:46:36.038Z,1004.49
2018-03-16T06:47:36.057Z,1004.56
2018-03-16T06:48:36.076Z,1004.52
2018-03-16T06:49:36.096Z,1004.47
2018-03-16T06:50:36.118Z,1004.52
2018-03-16T06:51:36.165Z,1004.46
2018-03-16T06:52:36.161Z,1004.41
2018-03-16T06:53:36.176Z,1004.46
2018-03-16T06:54:36.193Z,1004.51
2018-03-16T06:55:36.215Z,1004.50
2018-03-16T06:56:36.232Z,1004.49
2018-03-16T06:57:36.266Z,1004.48
2018-03-16T06:58:36.275Z,1004.51
2018-03-16T06:59:36.289Z,1004.51
2018-03-16T07:00:36.307Z,1004.49
2018-03-16T07:01:36.332Z,1004.49
2018-03-16T07:02:36.348Z,1004.51
2018-03-16T07:03:36.371Z,1004.54
2018-03-16T07:04:36.383Z,1004.53
2018-03-16T07:05:36.412Z,1004.58
2018-03-16T07:06:36.438Z,1004.59
2018-03-16T07:07:36.445Z,1004.64
2018-03-16T07:08:36.486Z,1004.65
2018-03-16T07:09:36.507Z,1004.61
2018-03-16T07:10:36.516Z,1004.61
2018-03-16T07:11:36.525Z,1004.65
2018-03-16T07:12:36.540Z,1004.61
2018-03-16T07:13:36.559Z,1004.66
2018-03-16T07:14:36.576Z,1004.70
2018-03-16T07:15:36.594Z,1004.75
2018-03-16T07:16:36.615Z,1004.70
2018-03-16T07:17:36.647Z,1004.68
2018-03-16T07:18:36.654Z,1004.74
2018-03-16T07:20:36.698Z,1004.79
2018-03-16T07:21:36.717Z,1004.73
2018-03-16T07:22:36.747Z,1004.78
2018-03-16T07:23:36.774Z,1004.79
2018-03-16T07:24:36.769Z,1004.75
2018-03-16T07:25:36.796Z,1004.83
2018-03-16T07:26:36.819Z,1004.73
2018-03-16T07:27:36.842Z,1004.77
2018-03-16T07:28:36.855Z,1004.84
2018-03-16T07:29:36.925Z,1004.75
2018-03-16T07:30:36.895Z,1004.82
2018-03-16T07:31:36.912Z,1004.86
2018-03-16T07:32:36.922Z,1005.03
2018-03-16T07:33:36.954Z,1004.83
2018-03-16T07:34:36.975Z,1004.81
2018-03-16T07:35:36.985Z,1004.81
2018-03-16T07:36:37.003Z,1004.72
2018-03-16T07:37:37.024Z,1004.81
2018-03-16T07:38:37.039Z,1004.85
2018-03-16T07:39:37.063Z,1004.81
2018-03-16T07:40:37.078Z,1004.96
2018-03-16T07:41:37.096Z,1004.83
2018-03-16T07:42:37.111Z,1004.80
2018-03-16T07:43:37.139Z,1004.89
2018-03-16T07:44:37.156Z,1004.81
2018-03-16T07:45:37.173Z,1004.90
2018-03-16T07:46:37.198Z,1004.90
2018-03-16T07:47:37.261Z,1004.81
2018-03-16T07:48:37.249Z,1004.80
2018-03-16T07:49:37.254Z,1004.81
2018-03-16T07:50:37.302Z,1004.79
2018-03-16T07:51:37.315Z,1004.76
2018-03-16T07:52:37.315Z,1004.82
2018-03-16T07:53:37.341Z,1004.80
2018-03-16T07:54:37.346Z,1004.73
2018-03-16T07:55:37.361Z,1004.76
2018-03-16T07:56:37.387Z,1004.72
2018-03-16T07:57:37.403Z,1004.82
2018-03-16T07:58:37.421Z,1004.85
2018-03-16T07:59:37.461Z,1004.85
2018-03-16T08:00:37.475Z,1004.76
2018-03-16T08:01:37.483Z,1004.81
2018-03-16T08:02:37.497Z,1004.76
2018-03-16T08:03:37.521Z,1004.86
2018-03-16T08:04:37.553Z,1004.80
2018-03-16T08:05:37.635Z,1004.81
2018-03-16T08:06:37.584Z,1004.76
2018-03-16T08:07:37.618Z,1004.87
2018-03-16T08:08:37.631Z,1004.74
2018-03-16T08:09:37.631Z,1004.81
2018-03-16T08:10:37.657Z,1005.04
2018-03-16T08:11:37.666Z,1004.82
2018-03-16T08:12:37.687Z,1004.86
2018-03-16T08:13:37.707Z,1004.89
2018-03-16T08:14:37.726Z,1004.94
2018-03-16T08:15:37.748Z,1004.90
2018-03-16T08:16:37.771Z,1004.77
2018-03-16T08:17:37.786Z,1004.79
2018-03-16T08:18:37.817Z,1004.92
2018-03-16T08:19:37.828Z,1004.92
2018-03-16T08:20:37.845Z,1004.85
2018-03-16T08:21:37.859Z,1004.92
2018-03-16T08:22:37.889Z,1004.93
2018-03-16T08:23:37.902Z,1004.79
2018-03-16T08:24:37.921Z,1004.89
2018-03-16T08:25:37.947Z,1004.90
2018-03-16T08:26:37.960Z,1004.82
2018-03-16T08:27:37.975Z,1004.84
2018-03-16T08:28:38.001Z,1004.84
2018-03-16T08:29:38.015Z,1004.78
2018-03-16T08:30:38.035Z,1004.80
2018-03-16T08:31:38.057Z,1004.81
2018-03-16T08:32:38.072Z,1004.86
2018-03-16T08:33:38.089Z,1004.94
2018-03-16T08:34:38.112Z,1004.92
2018-03-16T08:35:38.125Z,1004.84
2018-03-16T08:36:38.155Z,1004.91
2018-03-16T08:37:38.170Z,1004.93
2018-03-16T08:38:38.194Z,1004.91
2018-03-16T08:39:38.210Z,1004.92
2018-03-16T08:40:38.225Z,1005.01
2018-03-16T08:41:38.247Z,1004.95
2018-03-16T08:42:38.264Z,1005.01
2018-03-16T08:43:38.280Z,1005.01
2018-03-16T08:44:38.301Z,1005.01
2018-03-16T08:45:38.319Z,1004.97
2018-03-16T08:46:38.348Z,1005.10
2018-03-16T08:47:38.356Z,1004.95
2018-03-16T08:48:38.382Z,1005.12
2018-03-16T08:49:38.393Z,1005.01
2018-03-16T08:50:38.415Z,1005.02
2018-03-16T08:51:38.452Z,1005.03
2018-03-16T08:52:38.505Z,1004.97
2018-03-16T08:53:38.487Z,1005.10
2018-03-16T08:54:38.506Z,1005.07
2018-03-16T08:55:38.511Z,1005.03
2018-03-16T08:56:38.544Z,1005.14
2018-03-16T08:57:38.552Z,1005.10
2018-03-16T08:58:38.570Z,1005.10
2018-03-16T08:59:38.590Z,1005.08
2018-03-16T09:00:38.612Z,1005.01
2018-03-16T09:01:38.626Z,1005.22
2018-03-16T09:02:38.648Z,1005.07
2018-03-16T09:03:38.668Z,1005.10
2018-03-16T09:04:38.681Z,1005.10
2018-03-16T09:05:38.703Z,1005.18
2018-03-16T09:06:38.876Z,1005.14
2018-03-16T09:07:38.748Z,1005.09
2018-03-16T09:08:38.769Z,1005.15
2018-03-16T09:09:38.782Z,1005.10
2018-03-16T09:10:38.807Z,1005.15
2018-03-16T09:11:38.826Z,1005.20
2018-03-16T09:12:38.909Z,1005.12
2018-03-16T09:13:38.873Z,1005.20
2018-03-16T09:14:38.886Z,1005.21
2018-03-16T09:15:38.895Z,1005.15
2018-03-16T09:16:38.924Z,1005.18
2018-03-16T09:17:38.936Z,1005.19
2018-03-16T09:18:38.952Z,1005.17
2018-03-16T09:19:38.978Z,1005.11
2018-03-16T09:20:38.994Z,1005.18
2018-03-16T09:21:39.022Z,1005.29
2018-03-16T09:22:39.041Z,1005.14
2018-03-16T09:23:39.056Z,1005.18
2018-03-16T09:24:39.076Z,1005.17
2018-03-16T09:25:39.097Z,1005.19
2018-03-16T09:26:39.325Z,1005.20
2018-03-16T09:27:39.129Z,1005.15
2018-03-16T09:28:39.152Z,1005.19
2018-03-16T09:29:39.169Z,1005.20
2018-03-16T09:30:39.185Z,1005.23
2018-03-16T09:31:39.200Z,1005.28
2018-03-16T09:32:39.229Z,1005.27
2018-03-16T09:33:39.240Z,1005.28
2018-03-16T09:34:39.267Z,1005.23
2018-03-16T09:35:39.277Z,1005.29
2018-03-16T09:36:39.400Z,1005.29
2018-03-16T09:37:39.315Z,1005.28
2018-03-16T09:38:39.349Z,1005.32
2018-03-16T09:39:39.370Z,1005.31
2018-03-16T09:40:39.375Z,1005.38
2018-03-16T09:41:39.391Z,1005.39
2018-03-16T09:42:39.416Z,1005.31
2018-03-16T09:43:39.429Z,1005.30
2018-03-16T09:44:39.449Z,1005.31
2018-03-16T09:45:39.486Z,1005.36
2018-03-16T09:46:39.489Z,1005.26
2018-03-16T09:47:39.535Z,1005.27
2018-03-16T09:48:39.534Z,1005.30
2018-03-16T09:49:39.550Z,1005.19
2018-03-16T09:50:39.606Z,1005.26
2018-03-16T09:51:39.598Z,1005.40
2018-03-16T09:52:39.617Z,1005.32
2018-03-16T09:53:39.621Z,1005.35
2018-03-16T09:54:39.651Z,1005.37
2018-03-16T09:55:39.674Z,1005.36
2018-03-16T09:56:39.679Z,1005.30
2018-03-16T09:57:39.701Z,1005.32
2018-03-16T09:58:39.726Z,1005.35
2018-03-16T09:59:39.735Z,1005.33
2018-03-16T10:00:39.757Z,1005.35
2018-03-16T10:01:39.777Z,1005.37
2018-03-16T10:02:39.790Z,1005.28
2018-03-16T10:03:39.813Z,1005.43
2018-03-16T10:04:39.864Z,1005.23
2018-03-16T10:05:39.866Z,1005.32
2018-03-16T10:06:39.878Z,1005.30
2018-03-16T10:07:39.904Z,1005.33
2018-03-16T10:08:39.929Z,1005.31
2018-03-16T10:09:39.930Z,1005.33
2018-03-16T10:10:39.951Z,1005.30
2018-03-16T10:11:39.983Z,1005.19
2018-03-16T10:12:39.988Z,1005.25
2018-03-16T10:13:40.010Z,1005.28
2018-03-16T10:14:40.027Z,1005.32
2018-03-16T10:15:40.040Z,1005.26
2018-03-16T10:16:40.061Z,1005.26
2018-03-16T10:17:40.095Z,1005.26
2018-03-16T10:18:40.107Z,1005.28
2018-03-16T10:19:40.121Z,1005.21
2018-03-16T10:20:40.148Z,1005.28
2018-03-16T10:21:40.163Z,1005.27
2018-03-16T10:22:40.181Z,1005.28
2018-03-16T10:23:40.195Z,1005.29
2018-03-16T10:24:40.210Z,1005.24
2018-03-16T10:25:40.280Z,1005.26
2018-03-16T10:26:40.257Z,1005.25
2018-03-16T10:27:40.272Z,1005.26
2018-03-16T10:28:40.296Z,1005.30
2018-03-16T10:29:40.311Z,1005.29
2018-03-16T10:30:40.337Z,1005.33
2018-03-16T10:31:40.346Z,1005.31
2018-03-16T10:32:40.364Z,1005.33
2018-03-16T10:33:40.391Z,1005.37
2018-03-16T10:34:40.410Z,1005.42
2018-03-16T10:35:40.428Z,1005.24
2018-03-16T10:36:40.456Z,1005.30
2018-03-16T10:37:40.459Z,1005.30
2018-03-16T10:38:40.481Z,1005.34
2018-03-16T10:39:40.498Z,1005.39
2018-03-16T10:40:40.516Z,1005.32
2018-03-16T10:41:40.537Z,1005.43
2018-03-16T10:42:40.562Z,1005.45
2018-03-16T10:43:40.583Z,1005.37
2018-03-16T10:44:40.598Z,1005.35
2018-03-16T10:45:40.624Z,1005.36
2018-03-16T10:46:40.638Z,1005.36
2018-03-16T10:47:40.659Z,1005.34
2018-03-16T10:48:40.677Z,1005.36
2018-03-16T10:49:40.694Z,1005.46
2018-03-16T10:50:40.714Z,1005.40
2018-03-16T10:51:40.734Z,1005.28
2018-03-16T10:52:40.746Z,1005.46
2018-03-16T10:53:40.799Z,1005.41
2018-03-16T10:54:40.795Z,1005.38
2018-03-16T10:55:40.808Z,1005.37
2018-03-16T10:56:40.840Z,1005.34
2018-03-16T10:57:40.845Z,1005.39
2018-03-16T10:58:40.864Z,1005.37
2018-03-16T10:59:40.881Z,1005.33
2018-03-16T11:00:40.908Z,1005.30
2018-03-16T11:01:40.927Z,1005.33
2018-03-16T11:02:40.995Z,1005.27
2018-03-16T11:03:40.962Z,1005.37
2018-03-16T11:04:40.986Z,1005.37
2018-03-16T11:05:40.996Z,1005.38
2018-03-16T11:06:41.015Z,1005.29
2018-03-16T11:07:41.035Z,1005.37
2018-03-16T11:08:41.065Z,1005.37
2018-03-16T11:09:41.074Z,1005.37
2018-03-16T11:10:41.095Z,1005.38
2018-03-16T11:11:41.111Z,1005.31
2018-03-16T11:12:41.134Z,1005.27
2018-03-16T11:13:41.154Z,1005.35
2018-03-16T11:14:41.165Z,1005.32
2018-03-16T11:15:41.186Z,1005.41
2018-03-16T11:16:41.279Z,1005.41
2018-03-16T11:17:41.227Z,1005.37
2018-03-16T11:18:41.247Z,1005.35
2018-03-16T11:19:41.278Z,1005.28
2018-03-16T11:20:41.285Z,1005.41
2018-03-16T11:21:41.305Z,1005.31
2018-03-16T11:22:41.326Z,1005.31
2018-03-16T11:23:41.343Z,1005.37
2018-03-16T11:24:41.355Z,1005.40
2018-03-16T11:25:41.387Z,1005.38
2018-03-16T11:26:41.413Z,1005.30
2018-03-16T11:27:41.423Z,1005.34
2018-03-16T11:28:41.439Z,1005.32
2018-03-16T11:29:41.470Z,1005.41
2018-03-16T11:30:41.477Z,1005.44
2018-03-16T11:31:41.499Z,1005.25
2018-03-16T11:32:41.511Z,1005.27
2018-03-16T11:33:41.531Z,1005.25
2018-03-16T11:34:41.553Z,1005.20
2018-03-16T11:35:41.573Z,1005.27
2018-03-16T11:36:41.607Z,1005.33
2018-03-16T11:37:41.620Z,1005.26
2018-03-16T11:38:41.630Z,1005.28
2018-03-16T11:39:41.649Z,1005.26
2018-03-16T11:40:41.684Z,1005.34
2018-03-16T11:41:41.681Z,1005.22
2018-03-16T11:42:42.215Z,1005.22
2018-03-16T11:43:41.725Z,1005.27
2018-03-16T11:44:41.742Z,1005.30
2018-03-16T11:45:41.771Z,1005.22
2018-03-16T11:46:41.785Z,1005.36
2018-03-16T11:47:41.814Z,1005.17
2018-03-16T11:48:41.815Z,1005.27
2018-03-16T11:49:41.837Z,1005.19
2018-03-16T11:50:41.853Z,1005.28
2018-03-16T11:51:41.884Z,1005.26
2018-03-16T11:52:41.891Z,1005.26
2018-03-16T11:54:41.939Z,1005.27
2018-03-16T11:55:41.953Z,1005.22
2018-03-16T11:56:41.980Z,1005.20
2018-03-16T11:57:41.986Z,1005.19
2018-03-16T11:58:42.018Z,1005.18
2018-03-16T11:59:42.064Z,1005.23
2018-03-16T12:00:42.047Z,1005.25
2018-03-16T12:01:42.067Z,1005.19
2018-03-16T12:02:42.114Z,1005.25
2018-03-16T12:03:42.112Z,1005.16
2018-03-16T12:04:42.132Z,1005.22
2018-03-16T12:05:42.139Z,1005.25
2018-03-16T12:06:42.159Z,1005.20
2018-03-16T12:07:42.180Z,1005.24